SBOSBO MSY / KMSY
Speedbird OnlineSpeedbird Online MSY / KMSY

Louis Armstrong New Orleans International Airport
11:15 27.9°C

Location New Orleans, United States
Latitude: 29.99340057373047
Longitude: -90.25800323486328
Local Time 11:15 on 30 May 2024
UTC -5 hours (America/Chicago)
Currency £1 equals USD 1.27
METAR KMSY 301553Z 05011KT 10SM TS SCT020 BKN029CB BKN150 BKN250 29/24 A3003 RMK AO2 TSB35 SLP171 FRQ LTGICCG E-S TS E-S MOV NE CB SW-W MOV NE T02940244
TAF KMSY 301551Z 3016/3118 11004KT P6SM FEW030 SCT140 OVC250 TEMPO 3016/3017 2SM TSRA OVC015CB FM301700 10007KT P6SM VCSH FEW030 SCT100 FM302000 11008KT P6SM VCTS SCT040CB BKN100 FM310100 15008KT P6SM FEW050 SCT100
Weather As Of 30 May 2024 11:15
Description Thunderstorm
Wind 28 km/h from South-East (130°)
Cloud Cover 100%
Precipitation Rain: none, Snow: none
Sunrise 06:00
Sunset 19:56
NOTAM 34 active NOTAM
Rotations During the last 90 days there were
55 flights from LHR
51 flights to LHR
Lounges The Club at MSY, Main Terminal
Web Wikipedia
Codes IATA: MSY
ICAO: KMSY
Altitude 1 Meter / 4 Feet
Distance 7,472 KM / 4,643 Miles
from London.
Runways
RunwayLength (m)Surface
022134Asphalt
061088Asphalt
113080Partial
202134Asphalt
241088Asphalt
293080Partial
Radio
TypeDescriptionFrequency
A/DNEW ORLEANS APP/DEP123.85
ATISATIS127.55
CLDCLNC DEL127.2
GNDGND121.9
TWRTWR119.5
UNICUNICOM122.95
Live ATC



Support Speedbird Online

© 2017-2024 Speedbird Online